Terminal Aerodrome Forecast
Issued by NWS St Louis, MO

Home | Current Version | Previous Version | Text Only | Print | Product List | Glossary On
Versions: 1 2 3 4 5 6 7 8 9 10 11 12 13 14
000
FTUS43 KLSX 231600 AAA
TAFCOU
TAF AMD
KCOU 231636Z 2317/2412 01010KT P6SM SCT025
      TEMPO 2317/2319 BKN025
     FM231900 02010KT P6SM BKN035
     FM240100 05005KT P6SM SKC=

USA.gov is the U.S. government's official web portal to all federal, state and local government web resources and services.